Terminal Aerodrome Forecast
Issued by NWS Cleveland, OH

Home | Current Version | Previous Version | Text Only | Print | Product List | Glossary On
Versions: 1 2 3 4 5 6 7 8 9 10 11 12 13 14 15 16 17 18 19
000
FTUS41 KCLE 220100 AAA
TAFTOL
TAF AMD
KTOL 220158Z 2202/2224 31009KT P6SM SCT025 OVC040
      TEMPO 2202/2206 BKN025
     FM220600 32008KT P6SM SCT015 BKN025
     FM221400 34008KT P6SM SCT025=

USA.gov is the U.S. government's official web portal to all federal, state and local government web resources and services.